sensor_id;sensor_type;location;lat;lon;timestamp;temperature;humidity
16578;DHT22;8401;52.528;13.340;2023-07-22T00:00:49;15.50;99.90
16578;DHT22;8401;52.528;13.340;2023-07-22T00:03:15;15.50;99.90
16578;DHT22;8401;52.528;13.340;2023-07-22T00:05:41;15.50;99.90
16578;DHT22;8401;52.528;13.340;2023-07-22T00:08:07;15.50;99.90
16578;DHT22;8401;52.528;13.340;2023-07-22T00:10:33;15.40;99.90
16578;DHT22;8401;52.528;13.340;2023-07-22T00:12:58;15.40;99.90
16578;DHT22;8401;52.528;13.340;2023-07-22T00:15:24;15.40;99.90
16578;DHT22;8401;52.528;13.340;2023-07-22T00:17:51;15.40;99.90
16578;DHT22;8401;52.528;13.340;2023-07-22T00:20:17;15.40;99.90
16578;DHT22;8401;52.528;13.340;2023-07-22T00:22:43;15.40;99.90
16578;DHT22;8401;52.528;13.340;2023-07-22T00:25:11;15.40;99.90
16578;DHT22;8401;52.528;13.340;2023-07-22T00:27:42;15.40;99.90
16578;DHT22;8401;52.528;13.340;2023-07-22T00:30:08;15.50;99.90
16578;DHT22;8401;52.528;13.340;2023-07-22T00:32:34;15.50;99.90
16578;DHT22;8401;52.528;13.340;2023-07-22T00:35:03;15.60;99.90
16578;DHT22;8401;52.528;13.340;2023-07-22T00:37:30;15.60;99.90
16578;DHT22;8401;52.528;13.340;2023-07-22T00:39:55;15.50;99.90
16578;DHT22;8401;52.528;13.340;2023-07-22T00:42:21;15.50;99.90
16578;DHT22;8401;52.528;13.340;2023-07-22T00:44:47;15.60;99.90
16578;DHT22;8401;52.528;13.340;2023-07-22T00:47:13;15.50;99.90
16578;DHT22;8401;52.528;13.340;2023-07-22T00:49:39;15.50;99.90
16578;DHT22;8401;52.528;13.340;2023-07-22T00:52:05;15.50;99.90
16578;DHT22;8401;52.528;13.340;2023-07-22T00:54:31;15.40;99.90
16578;DHT22;8401;52.528;13.340;2023-07-22T00:56:57;15.50;99.90
16578;DHT22;8401;52.528;13.340;2023-07-22T00:59:24;15.50;99.90
16578;DHT22;8401;52.528;13.340;2023-07-22T01:01:50;15.40;99.90
16578;DHT22;8401;52.528;13.340;2023-07-22T01:04:16;15.60;99.90
16578;DHT22;8401;52.528;13.340;2023-07-22T01:06:44;15.50;99.90
16578;DHT22;8401;52.528;13.340;2023-07-22T01:09:10;15.50;99.90
16578;DHT22;8401;52.528;13.340;2023-07-22T01:11:36;15.50;99.90
16578;DHT22;8401;52.528;13.340;2023-07-22T01:14:01;15.50;99.90
16578;DHT22;8401;52.528;13.340;2023-07-22T01:16:28;15.60;99.90
16578;DHT22;8401;52.528;13.340;2023-07-22T01:18:54;15.60;99.90
16578;DHT22;8401;52.528;13.340;2023-07-22T01:21:23;15.60;99.90
16578;DHT22;8401;52.528;13.340;2023-07-22T01:23:50;15.50;99.90
16578;DHT22;8401;52.528;13.340;2023-07-22T01:26:16;15.50;99.90
16578;DHT22;8401;52.528;13.340;2023-07-22T01:28:43;15.30;99.90
16578;DHT22;8401;52.528;13.340;2023-07-22T01:31:09;15.30;99.90
16578;DHT22;8401;52.528;13.340;2023-07-22T01:33:35;15.30;99.90
16578;DHT22;8401;52.528;13.340;2023-07-22T01:36:01;15.20;99.90
16578;DHT22;8401;52.528;13.340;2023-07-22T01:38:27;15.20;99.90
16578;DHT22;8401;52.528;13.340;2023-07-22T01:40:52;15.20;99.90
16578;DHT22;8401;52.528;13.340;2023-07-22T01:43:18;15.30;99.90
16578;DHT22;8401;52.528;13.340;2023-07-22T01:45:44;15.30;99.90
16578;DHT22;8401;52.528;13.340;2023-07-22T01:48:09;15.30;99.90
16578;DHT22;8401;52.528;13.340;2023-07-22T01:50:35;15.30;99.90
16578;DHT22;8401;52.528;13.340;2023-07-22T01:53:00;15.20;99.90
16578;DHT22;8401;52.528;13.340;2023-07-22T01:55:26;15.20;99.90
16578;DHT22;8401;52.528;13.340;2023-07-22T01:57:51;15.20;99.90
16578;DHT22;8401;52.528;13.340;2023-07-22T02:00:17;15.20;99.90
16578;DHT22;8401;52.528;13.340;2023-07-22T02:02:43;15.10;99.90
16578;DHT22;8401;52.528;13.340;2023-07-22T02:05:09;15.10;99.90
16578;DHT22;8401;52.528;13.340;2023-07-22T02:07:35;15.00;99.90
16578;DHT22;8401;52.528;13.340;2023-07-22T02:10:01;15.00;99.90
16578;DHT22;8401;52.528;13.340;2023-07-22T02:12:27;15.00;99.90
16578;DHT22;8401;52.528;13.340;2023-07-22T02:14:52;14.90;99.90
16578;DHT22;8401;52.528;13.340;2023-07-22T02:17:18;14.80;99.90
16578;DHT22;8401;52.528;13.340;2023-07-22T02:19:43;14.80;99.90
16578;DHT22;8401;52.528;13.340;2023-07-22T02:22:09;14.80;99.90
16578;DHT22;8401;52.528;13.340;2023-07-22T02:24:35;14.90;99.90
16578;DHT22;8401;52.528;13.340;2023-07-22T02:27:01;14.80;99.90
16578;DHT22;8401;52.528;13.340;2023-07-22T02:29:26;14.80;99.90
16578;DHT22;8401;52.528;13.340;2023-07-22T02:31:52;14.70;99.90
16578;DHT22;8401;52.528;13.340;2023-07-22T02:34:17;14.70;99.90
16578;DHT22;8401;52.528;13.340;2023-07-22T02:36:43;14.70;99.90
16578;DHT22;8401;52.528;13.340;2023-07-22T02:39:09;14.60;99.90
16578;DHT22;8401;52.528;13.340;2023-07-22T02:41:36;14.70;99.90
16578;DHT22;8401;52.528;13.340;2023-07-22T02:44:02;14.60;99.90
16578;DHT22;8401;52.528;13.340;2023-07-22T02:46:29;14.70;99.90
16578;DHT22;8401;52.528;13.340;2023-07-22T02:48:54;14.60;99.90
16578;DHT22;8401;52.528;13.340;2023-07-22T02:51:20;14.60;99.90
16578;DHT22;8401;52.528;13.340;2023-07-22T02:53:46;14.60;99.90
16578;DHT22;8401;52.528;13.340;2023-07-22T02:56:12;14.60;99.90
16578;DHT22;8401;52.528;13.340;2023-07-22T02:58:39;14.60;99.90
16578;DHT22;8401;52.528;13.340;2023-07-22T03:01:07;14.50;99.90
16578;DHT22;8401;52.528;13.340;2023-07-22T03:03:34;14.60;99.90
16578;DHT22;8401;52.528;13.340;2023-07-22T03:06:00;14.60;99.90
16578;DHT22;8401;52.528;13.340;2023-07-22T03:08:27;14.70;99.90
16578;DHT22;8401;52.528;13.340;2023-07-22T03:10:52;14.60;99.90
16578;DHT22;8401;52.528;13.340;2023-07-22T03:13:18;14.50;99.90
16578;DHT22;8401;52.528;13.340;2023-07-22T03:15:44;14.50;99.90
16578;DHT22;8401;52.528;13.340;2023-07-22T03:18:10;14.50;99.90
16578;DHT22;8401;52.528;13.340;2023-07-22T03:20:39;14.40;99.90
16578;DHT22;8401;52.528;13.340;2023-07-22T03:23:05;14.40;99.90
16578;DHT22;8401;52.528;13.340;2023-07-22T03:25:32;14.40;99.90
16578;DHT22;8401;52.528;13.340;2023-07-22T03:28:03;14.40;99.90
16578;DHT22;8401;52.528;13.340;2023-07-22T03:30:29;14.40;99.90
16578;DHT22;8401;52.528;13.340;2023-07-22T03:32:55;14.40;99.90
16578;DHT22;8401;52.528;13.340;2023-07-22T03:35:20;14.40;99.90
16578;DHT22;8401;52.528;13.340;2023-07-22T03:37:46;14.40;99.90
16578;DHT22;8401;52.528;13.340;2023-07-22T03:40:12;14.40;99.90
16578;DHT22;8401;52.528;13.340;2023-07-22T03:42:57;14.40;99.90
16578;DHT22;8401;52.528;13.340;2023-07-22T03:45:26;14.40;99.90
16578;DHT22;8401;52.528;13.340;2023-07-22T03:47:56;14.40;99.90
16578;DHT22;8401;52.528;13.340;2023-07-22T03:50:23;14.30;99.90
16578;DHT22;8401;52.528;13.340;2023-07-22T03:52:48;14.30;99.90
16578;DHT22;8401;52.528;13.340;2023-07-22T03:55:14;14.40;99.90
16578;DHT22;8401;52.528;13.340;2023-07-22T03:57:40;14.40;99.90
16578;DHT22;8401;52.528;13.340;2023-07-22T04:00:06;14.50;99.90
16578;DHT22;8401;52.528;13.340;2023-07-22T04:02:35;14.50;99.90
16578;DHT22;8401;52.528;13.340;2023-07-22T04:05:00;14.60;99.90
16578;DHT22;8401;52.528;13.340;2023-07-22T04:07:26;14.50;99.90
16578;DHT22;8401;52.528;13.340;2023-07-22T04:09:52;14.50;99.90
16578;DHT22;8401;52.528;13.340;2023-07-22T04:12:17;14.40;99.90
16578;DHT22;8401;52.528;13.340;2023-07-22T04:14:43;14.40;99.90
16578;DHT22;8401;52.528;13.340;2023-07-22T04:17:09;14.40;99.90
16578;DHT22;8401;52.528;13.340;2023-07-22T04:19:34;14.30;99.90
16578;DHT22;8401;52.528;13.340;2023-07-22T04:22:00;14.30;99.90
16578;DHT22;8401;52.528;13.340;2023-07-22T04:24:30;14.30;99.90
16578;DHT22;8401;52.528;13.340;2023-07-22T04:26:56;14.40;99.90
16578;DHT22;8401;52.528;13.340;2023-07-22T04:29:22;14.40;99.90
16578;DHT22;8401;52.528;13.340;2023-07-22T04:31:47;14.40;99.90
16578;DHT22;8401;52.528;13.340;2023-07-22T04:34:13;14.50;99.90
16578;DHT22;8401;52.528;13.340;2023-07-22T04:36:38;14.50;99.90
16578;DHT22;8401;52.528;13.340;2023-07-22T04:39:04;14.50;99.90
16578;DHT22;8401;52.528;13.340;2023-07-22T04:41:33;14.60;99.90
16578;DHT22;8401;52.528;13.340;2023-07-22T04:43:59;14.60;99.90
16578;DHT22;8401;52.528;13.340;2023-07-22T04:46:25;14.60;99.90
16578;DHT22;8401;52.528;13.340;2023-07-22T04:48:56;14.70;99.90
16578;DHT22;8401;52.528;13.340;2023-07-22T04:51:23;14.70;99.90
16578;DHT22;8401;52.528;13.340;2023-07-22T04:53:49;14.70;99.90
16578;DHT22;8401;52.528;13.340;2023-07-22T04:56:15;14.70;99.90
16578;DHT22;8401;52.528;13.340;2023-07-22T04:58:41;14.70;99.90
16578;DHT22;8401;52.528;13.340;2023-07-22T05:01:07;14.70;99.90
16578;DHT22;8401;52.528;13.340;2023-07-22T05:03:34;14.70;99.90
16578;DHT22;8401;52.528;13.340;2023-07-22T05:06:00;14.70;99.90
16578;DHT22;8401;52.528;13.340;2023-07-22T05:08:27;14.80;99.90
16578;DHT22;8401;52.528;13.340;2023-07-22T05:10:52;14.80;99.90
16578;DHT22;8401;52.528;13.340;2023-07-22T05:13:18;14.80;99.90
16578;DHT22;8401;52.528;13.340;2023-07-22T05:15:44;14.80;99.90
16578;DHT22;8401;52.528;13.340;2023-07-22T05:18:10;14.90;99.90
16578;DHT22;8401;52.528;13.340;2023-07-22T05:20:38;14.90;99.90
16578;DHT22;8401;52.528;13.340;2023-07-22T05:23:03;14.90;99.90
16578;DHT22;8401;52.528;13.340;2023-07-22T05:25:29;14.90;99.90
16578;DHT22;8401;52.528;13.340;2023-07-22T05:27:54;15.00;99.90
16578;DHT22;8401;52.528;13.340;2023-07-22T05:30:20;15.00;99.90
16578;DHT22;8401;52.528;13.340;2023-07-22T05:32:46;15.00;99.90
16578;DHT22;8401;52.528;13.340;2023-07-22T05:35:11;15.00;99.90
16578;DHT22;8401;52.528;13.340;2023-07-22T05:37:37;15.00;99.90
16578;DHT22;8401;52.528;13.340;2023-07-22T05:40:03;15.00;99.90
16578;DHT22;8401;52.528;13.340;2023-07-22T05:42:29;15.10;99.90
16578;DHT22;8401;52.528;13.340;2023-07-22T05:44:56;15.10;99.90
16578;DHT22;8401;52.528;13.340;2023-07-22T05:47:22;15.20;99.90
16578;DHT22;8401;52.528;13.340;2023-07-22T05:49:48;15.20;99.90
16578;DHT22;8401;52.528;13.340;2023-07-22T05:52:13;15.30;99.90
16578;DHT22;8401;52.528;13.340;2023-07-22T05:54:39;15.20;99.90
16578;DHT22;8401;52.528;13.340;2023-07-22T05:57:05;15.10;99.90
16578;DHT22;8401;52.528;13.340;2023-07-22T05:59:31;15.10;99.90
16578;DHT22;8401;52.528;13.340;2023-07-22T06:01:57;15.10;99.90
16578;DHT22;8401;52.528;13.340;2023-07-22T06:04:22;15.20;99.90
16578;DHT22;8401;52.528;13.340;2023-07-22T06:06:48;15.30;99.90
16578;DHT22;8401;52.528;13.340;2023-07-22T06:09:14;15.40;99.90
16578;DHT22;8401;52.528;13.340;2023-07-22T06:11:39;15.50;99.90
16578;DHT22;8401;52.528;13.340;2023-07-22T06:14:05;15.50;99.90
16578;DHT22;8401;52.528;13.340;2023-07-22T06:16:31;15.50;99.90
16578;DHT22;8401;52.528;13.340;2023-07-22T06:18:56;15.50;99.90
16578;DHT22;8401;52.528;13.340;2023-07-22T06:21:22;15.40;99.90
16578;DHT22;8401;52.528;13.340;2023-07-22T06:23:47;15.50;99.90
16578;DHT22;8401;52.528;13.340;2023-07-22T06:26:13;15.50;99.90
16578;DHT22;8401;52.528;13.340;2023-07-22T06:28:39;15.60;99.90
16578;DHT22;8401;52.528;13.340;2023-07-22T06:31:04;15.70;99.90
16578;DHT22;8401;52.528;13.340;2023-07-22T06:33:30;15.70;99.90
16578;DHT22;8401;52.528;13.340;2023-07-22T06:35:55;15.80;99.90
16578;DHT22;8401;52.528;13.340;2023-07-22T06:38:21;15.90;99.90
16578;DHT22;8401;52.528;13.340;2023-07-22T06:40:47;16.10;99.90
16578;DHT22;8401;52.528;13.340;2023-07-22T06:43:12;16.10;99.90
16578;DHT22;8401;52.528;13.340;2023-07-22T06:45:38;16.10;99.90
16578;DHT22;8401;52.528;13.340;2023-07-22T06:48:03;16.20;99.90
16578;DHT22;8401;52.528;13.340;2023-07-22T06:50:29;16.10;99.90
16578;DHT22;8401;52.528;13.340;2023-07-22T06:52:55;16.00;99.90
16578;DHT22;8401;52.528;13.340;2023-07-22T06:55:20;16.10;99.90
16578;DHT22;8401;52.528;13.340;2023-07-22T06:57:48;16.10;99.90
16578;DHT22;8401;52.528;13.340;2023-07-22T07:00:14;16.40;99.90
16578;DHT22;8401;52.528;13.340;2023-07-22T07:02:41;16.60;99.90
16578;DHT22;8401;52.528;13.340;2023-07-22T07:05:06;16.50;99.90
16578;DHT22;8401;52.528;13.340;2023-07-22T07:07:32;16.60;99.90
16578;DHT22;8401;52.528;13.340;2023-07-22T07:09:58;16.50;99.90
16578;DHT22;8401;52.528;13.340;2023-07-22T07:12:24;16.60;99.90
16578;DHT22;8401;52.528;13.340;2023-07-22T07:14:53;16.70;99.90
16578;DHT22;8401;52.528;13.340;2023-07-22T07:17:19;16.70;99.90
16578;DHT22;8401;52.528;13.340;2023-07-22T07:19:44;16.90;99.90
16578;DHT22;8401;52.528;13.340;2023-07-22T07:22:10;17.20;99.90
16578;DHT22;8401;52.528;13.340;2023-07-22T07:24:36;17.40;99.90
16578;DHT22;8401;52.528;13.340;2023-07-22T07:27:02;17.30;99.90
16578;DHT22;8401;52.528;13.340;2023-07-22T07:29:27;17.10;99.90
16578;DHT22;8401;52.528;13.340;2023-07-22T07:31:53;17.20;99.90
16578;DHT22;8401;52.528;13.340;2023-07-22T07:34:18;17.40;99.90
16578;DHT22;8401;52.528;13.340;2023-07-22T07:36:44;17.50;99.90
16578;DHT22;8401;52.528;13.340;2023-07-22T07:39:09;17.60;99.90
16578;DHT22;8401;52.528;13.340;2023-07-22T07:41:35;17.80;99.90
16578;DHT22;8401;52.528;13.340;2023-07-22T07:44:01;18.20;99.90
16578;DHT22;8401;52.528;13.340;2023-07-22T07:46:27;18.20;99.90
16578;DHT22;8401;52.528;13.340;2023-07-22T07:48:57;18.30;99.90
16578;DHT22;8401;52.528;13.340;2023-07-22T07:51:25;18.30;99.90
16578;DHT22;8401;52.528;13.340;2023-07-22T07:53:55;18.60;99.90
16578;DHT22;8401;52.528;13.340;2023-07-22T07:56:21;18.90;99.90
16578;DHT22;8401;52.528;13.340;2023-07-22T07:58:49;19.20;99.90
16578;DHT22;8401;52.528;13.340;2023-07-22T08:01:15;19.10;99.90
16578;DHT22;8401;52.528;13.340;2023-07-22T08:03:41;18.70;99.90
16578;DHT22;8401;52.528;13.340;2023-07-22T08:06:08;18.30;99.90
16578;DHT22;8401;52.528;13.340;2023-07-22T08:08:34;18.20;99.90
16578;DHT22;8401;52.528;13.340;2023-07-22T08:11:01;18.30;99.90
16578;DHT22;8401;52.528;13.340;2023-07-22T08:13:27;18.70;99.90
16578;DHT22;8401;52.528;13.340;2023-07-22T08:15:53;19.20;99.90
16578;DHT22;8401;52.528;13.340;2023-07-22T08:18:19;19.30;99.90
16578;DHT22;8401;52.528;13.340;2023-07-22T08:20:44;18.70;99.90
16578;DHT22;8401;52.528;13.340;2023-07-22T08:23:13;18.60;99.90
16578;DHT22;8401;52.528;13.340;2023-07-22T08:25:38;19.10;99.90
16578;DHT22;8401;52.528;13.340;2023-07-22T08:28:04;18.90;99.90
16578;DHT22;8401;52.528;13.340;2023-07-22T08:30:30;18.80;99.90
16578;DHT22;8401;52.528;13.340;2023-07-22T08:32:55;18.50;99.90
16578;DHT22;8401;52.528;13.340;2023-07-22T08:35:21;18.40;99.90
16578;DHT22;8401;52.528;13.340;2023-07-22T08:37:48;19.10;99.90
16578;DHT22;8401;52.528;13.340;2023-07-22T08:40:13;20.10;99.90
16578;DHT22;8401;52.528;13.340;2023-07-22T08:42:40;20.70;99.90
16578;DHT22;8401;52.528;13.340;2023-07-22T08:45:10;20.20;99.90
16578;DHT22;8401;52.528;13.340;2023-07-22T08:47:41;20.10;99.90
16578;DHT22;8401;52.528;13.340;2023-07-22T08:50:10;19.40;99.90
16578;DHT22;8401;52.528;13.340;2023-07-22T08:52:37;18.60;99.90
16578;DHT22;8401;52.528;13.340;2023-07-22T08:55:04;18.70;99.90
16578;DHT22;8401;52.528;13.340;2023-07-22T08:57:30;19.80;99.90
16578;DHT22;8401;52.528;13.340;2023-07-22T08:59:57;19.70;99.90
16578;DHT22;8401;52.528;13.340;2023-07-22T09:02:24;21.00;99.90
16578;DHT22;8401;52.528;13.340;2023-07-22T09:04:50;20.50;99.90
16578;DHT22;8401;52.528;13.340;2023-07-22T09:07:16;20.50;99.90
16578;DHT22;8401;52.528;13.340;2023-07-22T09:09:44;20.60;99.90
16578;DHT22;8401;52.528;13.340;2023-07-22T09:12:12;20.20;99.90
16578;DHT22;8401;52.528;13.340;2023-07-22T09:14:40;19.90;99.90
16578;DHT22;8401;52.528;13.340;2023-07-22T09:17:06;19.50;99.90
16578;DHT22;8401;52.528;13.340;2023-07-22T09:19:32;19.40;99.90
16578;DHT22;8401;52.528;13.340;2023-07-22T09:21:58;20.80;99.90
16578;DHT22;8401;52.528;13.340;2023-07-22T09:24:25;20.70;99.90
16578;DHT22;8401;52.528;13.340;2023-07-22T09:26:53;20.20;99.90
16578;DHT22;8401;52.528;13.340;2023-07-22T09:29:36;20.50;99.90
16578;DHT22;8401;52.528;13.340;2023-07-22T09:32:03;20.50;99.90
16578;DHT22;8401;52.528;13.340;2023-07-22T09:34:29;20.70;99.90
16578;DHT22;8401;52.528;13.340;2023-07-22T09:36:59;20.70;99.90
16578;DHT22;8401;52.528;13.340;2023-07-22T09:39:29;21.80;99.90
16578;DHT22;8401;52.528;13.340;2023-07-22T09:41:55;22.40;99.90
16578;DHT22;8401;52.528;13.340;2023-07-22T09:44:22;22.90;99.90
16578;DHT22;8401;52.528;13.340;2023-07-22T09:46:48;23.50;99.90
16578;DHT22;8401;52.528;13.340;2023-07-22T09:49:16;22.00;99.90
16578;DHT22;8401;52.528;13.340;2023-07-22T09:51:42;22.00;99.90
16578;DHT22;8401;52.528;13.340;2023-07-22T09:54:08;22.80;99.90
16578;DHT22;8401;52.528;13.340;2023-07-22T09:56:44;23.40;99.90
16578;DHT22;8401;52.528;13.340;2023-07-22T09:59:11;23.60;99.90
16578;DHT22;8401;52.528;13.340;2023-07-22T10:01:41;23.50;99.90
16578;DHT22;8401;52.528;13.340;2023-07-22T10:04:08;23.80;99.90
16578;DHT22;8401;52.528;13.340;2023-07-22T10:06:36;22.60;99.90
16578;DHT22;8401;52.528;13.340;2023-07-22T10:09:04;22.20;99.90
16578;DHT22;8401;52.528;13.340;2023-07-22T10:11:36;21.50;99.90
16578;DHT22;8401;52.528;13.340;2023-07-22T10:14:02;21.30;99.90
16578;DHT22;8401;52.528;13.340;2023-07-22T10:16:28;21.60;99.90
16578;DHT22;8401;52.528;13.340;2023-07-22T10:18:55;22.30;99.90
16578;DHT22;8401;52.528;13.340;2023-07-22T10:21:22;22.70;99.90
16578;DHT22;8401;52.528;13.340;2023-07-22T10:23:48;22.70;99.90
16578;DHT22;8401;52.528;13.340;2023-07-22T10:26:18;23.70;99.90
16578;DHT22;8401;52.528;13.340;2023-07-22T10:28:45;23.60;99.90
16578;DHT22;8401;52.528;13.340;2023-07-22T10:31:11;23.60;99.90
16578;DHT22;8401;52.528;13.340;2023-07-22T10:33:38;24.00;99.90
16578;DHT22;8401;52.528;13.340;2023-07-22T10:36:09;24.10;99.90
16578;DHT22;8401;52.528;13.340;2023-07-22T10:38:38;23.60;99.90
16578;DHT22;8401;52.528;13.340;2023-07-22T10:41:14;22.80;99.90
16578;DHT22;8401;52.528;13.340;2023-07-22T10:43:42;22.80;99.90
16578;DHT22;8401;52.528;13.340;2023-07-22T10:46:31;23.20;99.90
16578;DHT22;8401;52.528;13.340;2023-07-22T10:49:13;22.20;99.90
16578;DHT22;8401;52.528;13.340;2023-07-22T10:51:39;22.20;99.90
16578;DHT22;8401;52.528;13.340;2023-07-22T10:54:12;21.80;99.90
16578;DHT22;8401;52.528;13.340;2023-07-22T10:56:40;21.40;99.90
16578;DHT22;8401;52.528;13.340;2023-07-22T10:59:05;22.20;99.90
16578;DHT22;8401;52.528;13.340;2023-07-22T11:01:37;23.40;99.90
16578;DHT22;8401;52.528;13.340;2023-07-22T11:04:07;24.20;99.90
16578;DHT22;8401;52.528;13.340;2023-07-22T11:06:35;24.30;99.90
16578;DHT22;8401;52.528;13.340;2023-07-22T11:09:00;24.00;99.90
16578;DHT22;8401;52.528;13.340;2023-07-22T11:11:39;23.00;99.90
16578;DHT22;8401;52.528;13.340;2023-07-22T11:14:15;22.90;99.90
16578;DHT22;8401;52.528;13.340;2023-07-22T11:16:43;23.50;99.90
16578;DHT22;8401;52.528;13.340;2023-07-22T11:19:10;23.70;99.90
16578;DHT22;8401;52.528;13.340;2023-07-22T11:21:36;23.70;99.90
16578;DHT22;8401;52.528;13.340;2023-07-22T11:24:03;24.00;99.90
16578;DHT22;8401;52.528;13.340;2023-07-22T11:26:30;24.60;99.90
16578;DHT22;8401;52.528;13.340;2023-07-22T11:28:57;25.00;99.90
16578;DHT22;8401;52.528;13.340;2023-07-22T11:31:29;25.40;99.10
16578;DHT22;8401;52.528;13.340;2023-07-22T11:33:55;25.80;98.50
16578;DHT22;8401;52.528;13.340;2023-07-22T11:36:21;26.40;98.10
16578;DHT22;8401;52.528;13.340;2023-07-22T11:38:46;25.10;97.50
16578;DHT22;8401;52.528;13.340;2023-07-22T11:41:12;24.30;98.10
16578;DHT22;8401;52.528;13.340;2023-07-22T11:43:38;24.10;98.50
16578;DHT22;8401;52.528;13.340;2023-07-22T11:46:07;23.80;99.00
16578;DHT22;8401;52.528;13.340;2023-07-22T11:48:32;24.30;98.80
16578;DHT22;8401;52.528;13.340;2023-07-22T11:50:59;25.00;97.90
16578;DHT22;8401;52.528;13.340;2023-07-22T11:53:28;25.30;97.70
16578;DHT22;8401;52.528;13.340;2023-07-22T11:55:57;25.00;97.20
16578;DHT22;8401;52.528;13.340;2023-07-22T11:58:26;25.30;96.70
16578;DHT22;8401;52.528;13.340;2023-07-22T12:01:10;25.80;96.80
16578;DHT22;8401;52.528;13.340;2023-07-22T12:03:36;26.10;96.70
16578;DHT22;8401;52.528;13.340;2023-07-22T12:06:06;26.30;96.30
16578;DHT22;8401;52.528;13.340;2023-07-22T12:08:33;25.30;96.10
16578;DHT22;8401;52.528;13.340;2023-07-22T12:10:59;25.00;96.60
16578;DHT22;8401;52.528;13.340;2023-07-22T12:13:25;25.00;96.20
16578;DHT22;8401;52.528;13.340;2023-07-22T12:16:01;24.70;96.20
16578;DHT22;8401;52.528;13.340;2023-07-22T12:18:26;24.30;96.30
16578;DHT22;8401;52.528;13.340;2023-07-22T12:20:52;24.40;96.00
16578;DHT22;8401;52.528;13.340;2023-07-22T12:23:18;24.10;96.70
16578;DHT22;8401;52.528;13.340;2023-07-22T12:25:44;24.00;96.70
16578;DHT22;8401;52.528;13.340;2023-07-22T12:28:09;23.30;96.60
16578;DHT22;8401;52.528;13.340;2023-07-22T12:30:36;23.40;97.10
16578;DHT22;8401;52.528;13.340;2023-07-22T12:33:02;23.20;97.20
16578;DHT22;8401;52.528;13.340;2023-07-22T12:35:28;23.30;97.30
16578;DHT22;8401;52.528;13.340;2023-07-22T12:37:53;23.50;97.60
16578;DHT22;8401;52.528;13.340;2023-07-22T12:40:19;23.60;98.00
16578;DHT22;8401;52.528;13.340;2023-07-22T12:42:46;23.10;98.40
16578;DHT22;8401;52.528;13.340;2023-07-22T12:45:12;22.80;98.30
16578;DHT22;8401;52.528;13.340;2023-07-22T12:47:38;22.80;98.50
16578;DHT22;8401;52.528;13.340;2023-07-22T12:50:05;22.80;99.10
16578;DHT22;8401;52.528;13.340;2023-07-22T12:52:33;23.10;98.90
16578;DHT22;8401;52.528;13.340;2023-07-22T12:54:58;23.20;99.00
16578;DHT22;8401;52.528;13.340;2023-07-22T12:57:24;23.70;98.60
16578;DHT22;8401;52.528;13.340;2023-07-22T12:59:49;23.20;99.00
16578;DHT22;8401;52.528;13.340;2023-07-22T13:02:16;23.00;99.10
16578;DHT22;8401;52.528;13.340;2023-07-22T13:04:42;22.90;99.00
16578;DHT22;8401;52.528;13.340;2023-07-22T13:07:09;22.90;99.10
16578;DHT22;8401;52.528;13.340;2023-07-22T13:09:35;22.60;99.10
16578;DHT22;8401;52.528;13.340;2023-07-22T13:12:00;22.80;98.40
16578;DHT22;8401;52.528;13.340;2023-07-22T13:14:26;23.00;98.60
16578;DHT22;8401;52.528;13.340;2023-07-22T13:16:51;23.00;99.20
16578;DHT22;8401;52.528;13.340;2023-07-22T13:19:17;23.60;98.40
16578;DHT22;8401;52.528;13.340;2023-07-22T13:21:43;23.40;98.40
16578;DHT22;8401;52.528;13.340;2023-07-22T13:24:08;23.20;97.80
16578;DHT22;8401;52.528;13.340;2023-07-22T13:26:34;23.20;98.10
16578;DHT22;8401;52.528;13.340;2023-07-22T13:29:01;22.90;98.20
16578;DHT22;8401;52.528;13.340;2023-07-22T13:31:26;22.80;99.10
16578;DHT22;8401;52.528;13.340;2023-07-22T13:33:52;22.90;98.60
16578;DHT22;8401;52.528;13.340;2023-07-22T13:36:17;23.10;98.50
16578;DHT22;8401;52.528;13.340;2023-07-22T13:38:43;23.10;98.50
16578;DHT22;8401;52.528;13.340;2023-07-22T13:41:09;22.90;98.60
16578;DHT22;8401;52.528;13.340;2023-07-22T13:43:34;23.10;98.90
16578;DHT22;8401;52.528;13.340;2023-07-22T13:46:00;22.90;98.60
16578;DHT22;8401;52.528;13.340;2023-07-22T13:48:25;22.80;98.90
16578;DHT22;8401;52.528;13.340;2023-07-22T13:50:51;22.90;98.80
16578;DHT22;8401;52.528;13.340;2023-07-22T13:53:17;23.10;98.70
16578;DHT22;8401;52.528;13.340;2023-07-22T13:55:43;23.30;98.30
16578;DHT22;8401;52.528;13.340;2023-07-22T13:58:09;23.00;98.20
16578;DHT22;8401;52.528;13.340;2023-07-22T14:00:35;22.80;98.10
16578;DHT22;8401;52.528;13.340;2023-07-22T14:03:00;22.40;98.40
16578;DHT22;8401;52.528;13.340;2023-07-22T14:05:26;22.20;98.90
16578;DHT22;8401;52.528;13.340;2023-07-22T14:07:51;22.20;99.30
16578;DHT22;8401;52.528;13.340;2023-07-22T14:10:18;22.10;99.50
16578;DHT22;8401;52.528;13.340;2023-07-22T14:12:43;22.20;99.20
16578;DHT22;8401;52.528;13.340;2023-07-22T14:15:09;22.10;99.50
16578;DHT22;8401;52.528;13.340;2023-07-22T14:17:35;22.20;99.00
16578;DHT22;8401;52.528;13.340;2023-07-22T14:20:03;22.50;99.00
16578;DHT22;8401;52.528;13.340;2023-07-22T14:22:30;22.70;99.30
16578;DHT22;8401;52.528;13.340;2023-07-22T14:24:56;22.90;98.90
16578;DHT22;8401;52.528;13.340;2023-07-22T14:27:22;23.20;98.60
16578;DHT22;8401;52.528;13.340;2023-07-22T14:29:47;23.00;98.70
16578;DHT22;8401;52.528;13.340;2023-07-22T14:32:13;22.50;99.10
16578;DHT22;8401;52.528;13.340;2023-07-22T14:34:41;22.60;99.10
16578;DHT22;8401;52.528;13.340;2023-07-22T14:37:07;22.90;99.20
16578;DHT22;8401;52.528;13.340;2023-07-22T14:39:33;23.10;99.30
16578;DHT22;8401;52.528;13.340;2023-07-22T14:41:58;22.80;99.30
16578;DHT22;8401;52.528;13.340;2023-07-22T14:44:24;22.80;99.30
16578;DHT22;8401;52.528;13.340;2023-07-22T14:46:50;22.80;99.30
16578;DHT22;8401;52.528;13.340;2023-07-22T14:49:15;22.70;99.40
16578;DHT22;8401;52.528;13.340;2023-07-22T14:51:41;22.70;99.50
16578;DHT22;8401;52.528;13.340;2023-07-22T14:54:06;22.40;99.60
16578;DHT22;8401;52.528;13.340;2023-07-22T14:56:33;22.20;99.90
16578;DHT22;8401;52.528;13.340;2023-07-22T14:58:58;22.20;99.90
16578;DHT22;8401;52.528;13.340;2023-07-22T15:01:24;22.20;99.90
16578;DHT22;8401;52.528;13.340;2023-07-22T15:03:49;22.20;99.90
16578;DHT22;8401;52.528;13.340;2023-07-22T15:06:15;22.20;99.90
16578;DHT22;8401;52.528;13.340;2023-07-22T15:08:41;22.40;99.90
16578;DHT22;8401;52.528;13.340;2023-07-22T15:11:07;22.30;99.90
16578;DHT22;8401;52.528;13.340;2023-07-22T15:13:33;22.30;99.90
16578;DHT22;8401;52.528;13.340;2023-07-22T15:15:58;22.30;99.90
16578;DHT22;8401;52.528;13.340;2023-07-22T15:18:24;22.40;99.90
16578;DHT22;8401;52.528;13.340;2023-07-22T15:20:51;22.20;99.90
16578;DHT22;8401;52.528;13.340;2023-07-22T15:23:18;22.20;99.90
16578;DHT22;8401;52.528;13.340;2023-07-22T15:25:43;22.10;99.90